createdAt,value
2022-10-14T00:00:34.345Z,99.02
2022-10-14T00:03:36.699Z,98.37
2022-10-14T00:06:38.236Z,99.45
2022-10-14T00:09:42.012Z,98.34
2022-10-14T00:12:45.423Z,99.26
2022-10-14T00:15:46.946Z,99.84
2022-10-14T00:18:48.691Z,99.04
2022-10-14T00:21:50.258Z,99.77
2022-10-14T00:24:51.828Z,100.00
2022-10-14T00:27:58.428Z,100.00
2022-10-14T00:31:00.643Z,100.00
2022-10-14T00:34:02.192Z,100.00
2022-10-14T00:37:03.851Z,100.00
2022-10-14T00:40:06.025Z,100.00
2022-10-14T00:43:10.081Z,100.00
2022-10-14T00:46:11.599Z,100.00
2022-10-14T00:49:22.208Z,100.00
2022-10-14T00:52:24.543Z,100.00
2022-10-14T00:55:26.980Z,100.00
2022-10-14T00:58:28.531Z,100.00
2022-10-14T01:01:30.105Z,100.00
2022-10-14T01:04:31.634Z,100.00
2022-10-14T01:07:52.009Z,100.00
2022-10-14T01:11:08.193Z,100.00
2022-10-14T01:14:09.749Z,100.00
2022-10-14T01:17:14.495Z,100.00
2022-10-14T01:20:45.692Z,100.00
2022-10-14T01:24:09.791Z,100.00
2022-10-14T01:27:26.665Z,100.00
2022-10-14T01:30:34.663Z,100.00
2022-10-14T01:33:38.340Z,100.00
2022-10-14T01:36:43.045Z,100.00
2022-10-14T01:39:45.932Z,100.00
2022-10-14T01:42:47.593Z,100.00
2022-10-14T01:45:49.168Z,100.00
2022-10-14T01:48:59.010Z,100.00
2022-10-14T01:52:07.675Z,100.00
2022-10-14T01:55:10.016Z,100.00
2022-10-14T01:58:12.537Z,100.00
2022-10-14T02:01:14.142Z,100.00
2022-10-14T02:04:16.389Z,100.00
2022-10-14T02:07:33.020Z,100.00
2022-10-14T02:11:02.339Z,100.00
2022-10-14T02:14:13.451Z,100.00
2022-10-14T02:17:36.849Z,100.00
2022-10-14T02:20:42.702Z,100.00
2022-10-14T02:23:49.613Z,100.00
2022-10-14T02:26:51.352Z,100.00
2022-10-14T02:29:53.404Z,100.00
2022-10-14T02:32:54.981Z,100.00
2022-10-14T02:35:56.633Z,100.00
2022-10-14T02:38:58.912Z,100.00
2022-10-14T02:42:00.501Z,100.00
2022-10-14T02:45:02.097Z,100.00
2022-10-14T02:48:03.843Z,100.00
2022-10-14T02:51:05.493Z,100.00
2022-10-14T02:54:07.088Z,100.00
2022-10-14T02:57:08.930Z,100.00
2022-10-14T03:00:11.046Z,100.00
2022-10-14T03:03:13.453Z,100.00
2022-10-14T03:06:15.165Z,100.00
2022-10-14T03:09:17.321Z,100.00
2022-10-14T03:12:22.160Z,100.00
2022-10-14T03:15:24.996Z,100.00
2022-10-14T03:18:27.603Z,100.00
2022-10-14T03:21:35.094Z,100.00
2022-10-14T03:24:36.680Z,100.00
2022-10-14T03:27:56.800Z,100.00
2022-10-14T03:31:10.946Z,100.00
2022-10-14T03:34:35.348Z,100.00
2022-10-14T03:37:47.552Z,100.00
2022-10-14T03:40:54.306Z,100.00
2022-10-14T03:43:56.444Z,100.00
2022-10-14T03:46:58.269Z,100.00
2022-10-14T03:50:05.198Z,100.00
2022-10-14T03:53:12.986Z,100.00
2022-10-14T03:56:14.712Z,100.00
2022-10-14T03:59:16.812Z,100.00
2022-10-14T04:02:23.372Z,100.00
2022-10-14T04:05:33.710Z,100.00
2022-10-14T04:08:38.863Z,100.00
2022-10-14T04:12:06.273Z,100.00
2022-10-14T04:15:21.641Z,100.00
2022-10-14T04:18:58.861Z,100.00
2022-10-14T04:22:00.592Z,100.00
2022-10-14T04:25:02.796Z,100.00
2022-10-14T04:28:04.601Z,100.00
2022-10-14T04:31:18.266Z,100.00
2022-10-14T04:34:27.230Z,100.00
2022-10-14T04:37:29.942Z,100.00
2022-10-14T04:40:44.730Z,100.00
2022-10-14T04:43:46.639Z,100.00
2022-10-14T04:46:57.689Z,100.00
2022-10-14T04:50:01.185Z,100.00
2022-10-14T04:53:05.212Z,100.00
2022-10-14T04:56:07.316Z,100.00
2022-10-14T04:59:15.909Z,100.00
2022-10-14T05:02:44.305Z,100.00
2022-10-14T05:05:46.204Z,100.00
2022-10-14T05:08:48.162Z,100.00
2022-10-14T05:11:49.761Z,100.00
2022-10-14T05:14:56.355Z,100.00
2022-10-14T05:18:04.557Z,100.00
2022-10-14T05:21:21.369Z,100.00
2022-10-14T05:24:35.173Z,100.00
2022-10-14T05:27:37.482Z,100.00
2022-10-14T05:30:39.460Z,100.00
2022-10-14T05:33:45.324Z,100.00
2022-10-14T05:36:47.280Z,100.00
2022-10-14T05:39:50.296Z,100.00
2022-10-14T05:42:54.897Z,100.00
2022-10-14T05:45:56.497Z,100.00
2022-10-14T05:49:02.562Z,100.00
2022-10-14T05:52:04.314Z,100.00
2022-10-14T05:55:08.309Z,100.00
2022-10-14T05:58:10.392Z,100.00
2022-10-14T06:01:15.637Z,100.00
2022-10-14T06:04:18.581Z,100.00
2022-10-14T06:07:20.279Z,100.00
2022-10-14T06:10:22.755Z,100.00
2022-10-14T06:13:24.362Z,100.00
2022-10-14T06:16:26.518Z,100.00
2022-10-14T06:19:28.435Z,100.00
2022-10-14T06:22:30.857Z,100.00
2022-10-14T06:25:32.634Z,100.00
2022-10-14T06:28:34.290Z,100.00
2022-10-14T06:31:35.879Z,100.00
2022-10-14T06:34:37.470Z,100.00
2022-10-14T06:37:39.042Z,100.00
2022-10-14T06:40:40.645Z,100.00
2022-10-14T06:43:42.264Z,100.00
2022-10-14T06:46:44.086Z,100.00
2022-10-14T06:49:45.628Z,100.00
2022-10-14T06:52:47.192Z,100.00
2022-10-14T06:55:48.720Z,100.00
2022-10-14T06:58:54.213Z,100.00
2022-10-14T07:01:55.957Z,100.00
2022-10-14T07:04:57.565Z,100.00
2022-10-14T07:11:05.568Z,100.00
2022-10-14T07:14:07.996Z,100.00
2022-10-14T07:17:09.789Z,100.00
2022-10-14T07:20:12.442Z,100.00
2022-10-14T07:23:14.034Z,100.00
2022-10-14T07:26:15.596Z,100.00
2022-10-14T07:29:17.313Z,100.00
2022-10-14T07:32:18.970Z,100.00
2022-10-14T07:35:20.706Z,100.00
2022-10-14T07:38:22.507Z,100.00
2022-10-14T07:41:24.587Z,100.00
2022-10-14T07:44:27.375Z,100.00
2022-10-14T07:47:29.349Z,100.00
2022-10-14T07:50:30.925Z,100.00
2022-10-14T07:53:32.525Z,100.00
2022-10-14T07:56:35.205Z,100.00
2022-10-14T07:59:36.727Z,100.00
2022-10-14T08:02:38.280Z,100.00
2022-10-14T08:05:39.861Z,100.00
2022-10-14T08:08:41.582Z,100.00
2022-10-14T08:11:43.397Z,100.00
2022-10-14T08:14:44.998Z,100.00
2022-10-14T08:17:46.593Z,100.00
2022-10-14T08:20:48.244Z,100.00
2022-10-14T08:23:49.857Z,100.00
2022-10-14T08:26:52.545Z,100.00
2022-10-14T08:29:54.410Z,100.00
2022-10-14T08:32:56.033Z,100.00
2022-10-14T08:35:57.781Z,100.00
2022-10-14T08:38:59.940Z,100.00
2022-10-14T08:42:07.689Z,100.00
2022-10-14T08:45:10.982Z,100.00
2022-10-14T08:48:13.762Z,99.76
2022-10-14T08:51:15.947Z,99.04
2022-10-14T08:54:43.821Z,98.38
2022-10-14T08:57:49.725Z,95.36
2022-10-14T09:00:51.942Z,96.28
2022-10-14T09:04:03.450Z,95.36
2022-10-14T09:07:04.961Z,94.71
2022-10-14T09:10:07.949Z,94.51
2022-10-14T09:13:15.633Z,94.48
2022-10-14T09:16:22.109Z,93.47
2022-10-14T09:19:23.948Z,94.07
2022-10-14T09:22:26.033Z,91.60
2022-10-14T09:25:27.613Z,90.34
2022-10-14T09:28:36.856Z,90.24
2022-10-14T09:31:38.463Z,88.33
2022-10-14T09:34:41.155Z,89.57
2022-10-14T09:37:42.684Z,88.05
2022-10-14T09:40:45.234Z,88.62
2022-10-14T09:44:05.525Z,87.36
2022-10-14T09:47:09.447Z,88.00
2022-10-14T09:50:19.926Z,88.53
2022-10-14T09:53:26.561Z,85.70
2022-10-14T09:56:31.815Z,85.11
2022-10-14T09:59:33.699Z,85.19
2022-10-14T10:02:44.725Z,86.48
2022-10-14T10:05:46.493Z,85.58
2022-10-14T10:08:54.082Z,85.27
2022-10-14T10:11:56.146Z,83.07
2022-10-14T10:14:58.997Z,83.19
2022-10-14T10:18:00.665Z,83.36
2022-10-14T10:21:02.283Z,80.66
2022-10-14T10:24:03.949Z,80.81
2022-10-14T10:27:09.829Z,80.41
2022-10-14T10:30:16.214Z,80.33
2022-10-14T10:33:28.785Z,80.73
2022-10-14T10:36:41.566Z,80.42
2022-10-14T10:39:48.824Z,80.34
2022-10-14T10:43:02.670Z,78.42
2022-10-14T10:46:04.247Z,77.35
2022-10-14T10:49:10.350Z,77.30
2022-10-14T10:52:30.759Z,75.47
2022-10-14T10:58:49.783Z,72.44
2022-10-14T11:02:10.191Z,75.29
2022-10-14T11:05:24.133Z,78.91
2022-10-14T11:09:06.183Z,81.08
2022-10-14T11:12:21.133Z,85.88
2022-10-14T11:15:35.573Z,90.54
2022-10-14T11:18:47.591Z,92.94
2022-10-14T11:21:49.167Z,91.33
2022-10-14T11:24:54.720Z,86.69
2022-10-14T11:27:57.292Z,84.29
2022-10-14T11:31:28.657Z,85.62
2022-10-14T11:34:30.222Z,86.57
2022-10-14T11:37:31.709Z,87.04
2022-10-14T11:40:37.972Z,89.35
2022-10-14T11:43:42.010Z,95.52
2022-10-14T11:46:44.232Z,97.81
2022-10-14T11:49:53.100Z,97.54
2022-10-14T11:52:56.588Z,96.41
2022-10-14T11:56:01.590Z,96.59
2022-10-14T11:59:06.054Z,97.01
2022-10-14T12:02:21.404Z,97.39
2022-10-14T12:05:23.213Z,98.24
2022-10-14T12:08:28.484Z,97.45
2022-10-14T12:11:35.185Z,96.44
2022-10-14T12:14:38.447Z,96.27
2022-10-14T12:17:45.238Z,96.45
2022-10-14T12:20:51.902Z,96.54
2022-10-14T12:23:58.641Z,95.16
2022-10-14T12:27:04.671Z,92.85
2022-10-14T12:30:18.209Z,91.66
2022-10-14T12:33:22.945Z,89.60
2022-10-14T12:36:33.857Z,89.16
2022-10-14T12:39:35.511Z,86.69
2022-10-14T12:42:39.195Z,87.65
2022-10-14T12:45:49.033Z,87.20
2022-10-14T12:48:50.929Z,86.41
2022-10-14T12:51:55.736Z,91.48
2022-10-14T12:54:57.297Z,99.66
2022-10-14T12:58:02.188Z,100.00
2022-10-14T13:01:07.247Z,100.00
2022-10-14T13:04:19.148Z,100.00
2022-10-14T13:07:40.428Z,100.00
2022-10-14T13:10:47.034Z,100.00
2022-10-14T13:13:50.297Z,100.00
2022-10-14T13:16:51.864Z,100.00
2022-10-14T13:19:53.400Z,100.00
2022-10-14T13:23:15.168Z,100.00
2022-10-14T13:26:32.057Z,87.37
2022-10-14T13:29:51.945Z,84.79
2022-10-14T13:32:55.143Z,75.94
2022-10-14T13:36:16.923Z,73.29
2022-10-14T13:39:18.433Z,70.41
2022-10-14T13:42:23.269Z,68.43
2022-10-14T13:45:42.133Z,68.53
2022-10-14T13:48:44.388Z,69.90
2022-10-14T13:51:55.075Z,69.17
2022-10-14T13:55:10.015Z,61.56
2022-10-14T13:58:15.661Z,65.17
2022-10-14T14:01:17.973Z,69.73
2022-10-14T14:04:23.880Z,72.65
2022-10-14T14:11:15.182Z,82.29
2022-10-14T14:14:14.801Z,81.52
2022-10-14T14:17:20.415Z,77.18
2022-10-14T14:20:25.775Z,70.34
2022-10-14T14:23:28.585Z,66.74
2022-10-14T14:26:36.941Z,63.54
2022-10-14T14:29:40.740Z,62.87
2022-10-14T14:32:42.221Z,63.27
2022-10-14T14:35:54.602Z,60.77
2022-10-14T14:39:01.235Z,58.89
2022-10-14T14:42:02.752Z,59.69
2022-10-14T14:45:05.835Z,58.65
2022-10-14T14:48:07.362Z,55.68
2022-10-14T14:51:10.013Z,54.44
2022-10-14T14:54:18.412Z,52.79
2022-10-14T14:57:20.811Z,54.97
2022-10-14T15:00:22.766Z,51.75
2022-10-14T15:03:31.929Z,52.23
2022-10-14T15:06:33.999Z,58.13
2022-10-14T15:09:37.594Z,56.77
2022-10-14T15:12:42.051Z,55.41
2022-10-14T15:15:51.606Z,52.38
2022-10-14T15:19:11.563Z,53.63
2022-10-14T15:22:16.130Z,55.97
2022-10-14T15:25:17.632Z,58.25
2022-10-14T15:28:31.911Z,58.11
2022-10-14T15:31:34.868Z,56.13
2022-10-14T15:34:36.457Z,55.41
2022-10-14T15:37:37.995Z,53.39
2022-10-14T15:40:42.076Z,53.87
2022-10-14T15:43:43.959Z,52.78
2022-10-14T15:47:04.170Z,54.29
2022-10-14T15:50:12.702Z,52.93
2022-10-14T15:53:14.320Z,53.41
2022-10-14T15:56:17.192Z,52.58
2022-10-14T15:59:19.527Z,51.90
2022-10-14T16:02:25.339Z,51.14
2022-10-14T16:05:28.963Z,50.83
2022-10-14T16:08:30.544Z,50.52
2022-10-14T16:11:32.037Z,50.44
2022-10-14T16:14:34.173Z,51.18
2022-10-14T16:17:36.589Z,52.46
2022-10-14T16:20:38.263Z,52.18
2022-10-14T16:23:40.111Z,53.55
2022-10-14T16:26:42.335Z,54.83
2022-10-14T16:29:46.005Z,55.71
2022-10-14T16:32:47.619Z,56.21
2022-10-14T16:35:50.097Z,56.82
2022-10-14T16:38:52.014Z,58.34
2022-10-14T16:41:55.761Z,58.66
2022-10-14T16:44:57.317Z,61.24
2022-10-14T16:47:58.895Z,65.17
2022-10-14T16:51:00.476Z,67.77
2022-10-14T16:54:02.049Z,69.24
2022-10-14T16:57:04.422Z,68.94
2022-10-14T17:00:07.230Z,69.74
2022-10-14T17:03:09.073Z,71.51
2022-10-14T17:06:10.617Z,74.15
2022-10-14T17:09:12.245Z,75.16
2022-10-14T17:12:14.437Z,74.65
2022-10-14T17:15:16.220Z,75.44
2022-10-14T17:18:18.006Z,75.51
2022-10-14T17:21:19.769Z,76.08
2022-10-14T17:24:22.693Z,76.96
2022-10-14T17:27:24.711Z,77.54
2022-10-14T17:30:27.081Z,78.03
2022-10-14T17:33:28.633Z,78.88
2022-10-14T17:36:33.221Z,79.49
2022-10-14T17:39:35.045Z,79.63
2022-10-14T17:42:36.565Z,80.32
2022-10-14T17:45:38.300Z,80.66
2022-10-14T17:48:42.249Z,81.51
2022-10-14T17:51:45.019Z,82.03
2022-10-14T17:54:46.564Z,82.32
2022-10-14T17:57:48.208Z,83.17
2022-10-14T18:00:49.724Z,83.58
2022-10-14T18:03:51.434Z,83.82
2022-10-14T18:06:54.195Z,82.63
2022-10-14T18:09:55.874Z,81.70
2022-10-14T18:12:58.048Z,82.05
2022-10-14T18:16:06.774Z,82.53
2022-10-14T18:19:09.241Z,82.73
2022-10-14T18:22:11.289Z,82.52
2022-10-14T18:25:15.180Z,82.04
2022-10-14T18:28:16.889Z,81.57
2022-10-14T18:31:19.356Z,82.45
2022-10-14T18:34:22.552Z,83.55
2022-10-14T18:37:24.056Z,85.18
2022-10-14T18:40:25.700Z,85.78
2022-10-14T18:43:27.477Z,86.25
2022-10-14T18:46:29.961Z,86.67
2022-10-14T18:49:33.640Z,87.00
2022-10-14T18:52:38.250Z,87.08
2022-10-14T18:55:39.782Z,86.61
2022-10-14T18:58:45.609Z,86.96
2022-10-14T19:01:47.588Z,86.68
2022-10-14T19:04:49.482Z,87.98
2022-10-14T19:07:51.017Z,88.61
2022-10-14T19:11:02.353Z,90.37
2022-10-14T19:14:04.217Z,91.00
2022-10-14T19:17:06.109Z,90.56
2022-10-14T19:20:08.706Z,89.52
2022-10-14T19:23:10.540Z,88.69
2022-10-14T19:26:13.644Z,88.92
2022-10-14T19:29:15.544Z,88.68
2022-10-14T19:32:17.037Z,89.48
2022-10-14T19:35:21.659Z,88.75
2022-10-14T19:38:23.357Z,88.46
2022-10-14T19:41:25.693Z,88.67
2022-10-14T19:44:27.466Z,89.19
2022-10-14T19:47:29.088Z,90.36
2022-10-14T19:50:30.691Z,90.84
2022-10-14T19:53:32.211Z,90.37
2022-10-14T19:56:33.777Z,90.74
2022-10-14T19:59:35.415Z,91.40
2022-10-14T20:05:43.396Z,92.37
2022-10-14T20:08:46.022Z,92.81
2022-10-14T20:11:47.662Z,93.27
2022-10-14T20:14:49.272Z,93.63
2022-10-14T20:17:50.835Z,93.66
2022-10-14T20:20:52.394Z,94.01
2022-10-14T20:23:54.039Z,93.69
2022-10-14T20:26:56.294Z,92.75
2022-10-14T20:29:58.688Z,93.47
2022-10-14T20:33:00.324Z,91.68
2022-10-14T20:36:02.525Z,91.50
2022-10-14T20:39:04.093Z,92.16
2022-10-14T20:42:07.167Z,92.39
2022-10-14T20:45:08.981Z,92.03
2022-10-14T20:48:10.510Z,91.53
2022-10-14T20:51:15.901Z,91.17
2022-10-14T20:54:17.618Z,90.82
2022-10-14T20:57:19.117Z,90.80
2022-10-14T21:00:20.679Z,91.08
2022-10-14T21:03:22.438Z,91.34
2022-10-14T21:06:24.360Z,91.47
2022-10-14T21:09:27.319Z,90.23
2022-10-14T21:12:29.138Z,89.16
2022-10-14T21:15:30.865Z,90.07
2022-10-14T21:18:32.447Z,90.57
2022-10-14T21:21:38.026Z,89.37
2022-10-14T21:24:41.284Z,90.42
2022-10-14T21:27:42.831Z,90.27
2022-10-14T21:30:44.366Z,90.52
2022-10-14T21:33:47.053Z,90.90
2022-10-14T21:36:48.602Z,91.27
2022-10-14T21:39:50.140Z,93.08
2022-10-14T21:42:52.319Z,93.60
2022-10-14T21:45:54.054Z,92.34
2022-10-14T21:48:57.195Z,90.68
2022-10-14T21:51:58.733Z,89.03
2022-10-14T21:55:00.303Z,88.29
2022-10-14T21:58:01.869Z,88.44
2022-10-14T22:01:07.654Z,88.97
2022-10-14T22:04:09.392Z,89.83
2022-10-14T22:07:11.237Z,90.03
2022-10-14T22:10:31.521Z,89.40
2022-10-14T22:13:34.381Z,89.19
2022-10-14T22:16:35.966Z,88.64
2022-10-14T22:19:37.581Z,88.48
2022-10-14T22:22:39.101Z,88.87
2022-10-14T22:25:40.785Z,89.07
2022-10-14T22:28:42.459Z,89.64
2022-10-14T22:31:44.281Z,90.21
2022-10-14T22:34:47.136Z,90.42
2022-10-14T22:37:48.775Z,91.01
2022-10-14T22:40:50.281Z,91.36
2022-10-14T22:43:53.009Z,91.09
2022-10-14T22:46:54.554Z,90.69
2022-10-14T22:49:56.137Z,90.02
2022-10-14T22:52:57.706Z,90.27
2022-10-14T22:55:59.493Z,90.30
2022-10-14T22:59:02.434Z,89.67
2022-10-14T23:02:04.128Z,89.17
2022-10-14T23:05:05.925Z,89.06
2022-10-14T23:08:12.045Z,89.32
2022-10-14T23:11:17.473Z,89.31
2022-10-14T23:14:19.022Z,89.54
2022-10-14T23:17:20.555Z,90.10
2022-10-14T23:20:22.266Z,90.32
2022-10-14T23:23:23.784Z,90.59
2022-10-14T23:26:26.122Z,90.40
2022-10-14T23:29:27.746Z,91.00
2022-10-14T23:32:29.270Z,91.69
2022-10-14T23:35:31.013Z,92.17
2022-10-14T23:38:32.955Z,92.13
2022-10-14T23:41:34.701Z,92.48
2022-10-14T23:44:36.742Z,92.52
2022-10-14T23:47:38.258Z,91.98
2022-10-14T23:50:39.914Z,92.09
2022-10-14T23:53:41.485Z,92.57
2022-10-14T23:56:43.085Z,92.41
2022-10-14T23:59:44.621Z,92.30
